sensor_id;sensor_type;location;lat;lon;timestamp;pressure;altitude;pressure_sealevel;temperature;humidity
61436;BME280;47304;47.456;19.160;2023-12-04T00:02:06;101188.21;;;-2.16;63.66
61436;BME280;47304;47.456;19.160;2023-12-04T00:04:34;101188.73;;;-2.16;63.58
61436;BME280;47304;47.456;19.160;2023-12-04T00:07:03;101186.86;;;-2.16;63.85
61436;BME280;47304;47.456;19.160;2023-12-04T00:09:32;101186.28;;;-2.14;63.66
61436;BME280;47304;47.456;19.160;2023-12-04T00:12:01;101183.77;;;-2.14;63.70
61436;BME280;47304;47.456;19.160;2023-12-04T00:14:29;101184.23;;;-2.14;63.59
61436;BME280;47304;47.456;19.160;2023-12-04T00:16:58;101188.27;;;-2.15;63.67
61436;BME280;47304;47.456;19.160;2023-12-04T00:19:26;101189.56;;;-2.17;63.62
61436;BME280;47304;47.456;19.160;2023-12-04T00:21:55;101188.11;;;-2.18;63.52
61436;BME280;47304;47.456;19.160;2023-12-04T00:24:23;101187.41;;;-2.18;63.56
61436;BME280;47304;47.456;19.160;2023-12-04T00:26:52;101188.18;;;-2.17;63.57
61436;BME280;47304;47.456;19.160;2023-12-04T00:29:21;101192.99;;;-2.17;63.56
61436;BME280;47304;47.456;19.160;2023-12-04T00:31:49;101188.04;;;-2.16;63.67
61436;BME280;47304;47.456;19.160;2023-12-04T00:34:18;101187.89;;;-2.16;63.67
61436;BME280;47304;47.456;19.160;2023-12-04T00:36:46;101190.86;;;-2.18;63.64
61436;BME280;47304;47.456;19.160;2023-12-04T00:39:15;101188.80;;;-2.21;63.62
61436;BME280;47304;47.456;19.160;2023-12-04T00:41:44;101192.92;;;-2.24;63.71
61436;BME280;47304;47.456;19.160;2023-12-04T00:44:12;101189.80;;;-2.26;63.72
61436;BME280;47304;47.456;19.160;2023-12-04T00:46:41;101192.08;;;-2.29;63.79
61436;BME280;47304;47.456;19.160;2023-12-04T00:49:10;101191.96;;;-2.30;63.74
61436;BME280;47304;47.456;19.160;2023-12-04T00:51:40;101193.02;;;-2.32;63.87
61436;BME280;47304;47.456;19.160;2023-12-04T00:54:08;101196.23;;;-2.33;64.02
61436;BME280;47304;47.456;19.160;2023-12-04T00:56:39;101200.29;;;-2.34;64.21
61436;BME280;47304;47.456;19.160;2023-12-04T00:59:08;101201.30;;;-2.35;64.13
61436;BME280;47304;47.456;19.160;2023-12-04T01:01:36;101195.21;;;-2.36;64.14
61436;BME280;47304;47.456;19.160;2023-12-04T01:04:05;101195.70;;;-2.37;64.03
61436;BME280;47304;47.456;19.160;2023-12-04T01:06:33;101191.06;;;-2.39;64.06
61436;BME280;47304;47.456;19.160;2023-12-04T01:09:02;101187.88;;;-2.40;64.17
61436;BME280;47304;47.456;19.160;2023-12-04T01:11:31;101184.75;;;-2.44;64.21
61436;BME280;47304;47.456;19.160;2023-12-04T01:13:59;101182.46;;;-2.45;64.26
61436;BME280;47304;47.456;19.160;2023-12-04T01:16:28;101181.48;;;-2.47;64.46
61436;BME280;47304;47.456;19.160;2023-12-04T01:18:56;101185.61;;;-2.46;64.67
61436;BME280;47304;47.456;19.160;2023-12-04T01:21:25;101189.58;;;-2.46;64.50
61436;BME280;47304;47.456;19.160;2023-12-04T01:23:53;101193.29;;;-2.50;64.33
61436;BME280;47304;47.456;19.160;2023-12-04T01:26:22;101187.56;;;-2.54;64.17
61436;BME280;47304;47.456;19.160;2023-12-04T01:28:50;101191.27;;;-2.57;64.33
61436;BME280;47304;47.456;19.160;2023-12-04T01:31:19;101191.27;;;-2.60;64.47
61436;BME280;47304;47.456;19.160;2023-12-04T01:33:47;101192.21;;;-2.61;64.68
61436;BME280;47304;47.456;19.160;2023-12-04T01:36:16;101193.88;;;-2.62;64.80
61436;BME280;47304;47.456;19.160;2023-12-04T01:38:44;101198.50;;;-2.62;64.81
61436;BME280;47304;47.456;19.160;2023-12-04T01:41:13;101198.05;;;-2.64;64.76
61436;BME280;47304;47.456;19.160;2023-12-04T01:43:41;101203.70;;;-2.64;64.77
61436;BME280;47304;47.456;19.160;2023-12-04T01:46:10;101200.67;;;-2.65;64.80
61436;BME280;47304;47.456;19.160;2023-12-04T01:48:39;101201.79;;;-2.67;64.83
61436;BME280;47304;47.456;19.160;2023-12-04T01:51:10;101200.98;;;-2.71;64.60
61436;BME280;47304;47.456;19.160;2023-12-04T01:53:41;101207.30;;;-2.79;64.61
61436;BME280;47304;47.456;19.160;2023-12-04T01:56:11;101208.17;;;-2.87;64.80
61436;BME280;47304;47.456;19.160;2023-12-04T01:58:40;101212.48;;;-2.92;64.88
61436;BME280;47304;47.456;19.160;2023-12-04T02:01:09;101208.87;;;-2.97;64.98
61436;BME280;47304;47.456;19.160;2023-12-04T02:03:37;101210.31;;;-3.01;65.14
61436;BME280;47304;47.456;19.160;2023-12-04T02:06:07;101212.71;;;-3.04;65.40
61436;BME280;47304;47.456;19.160;2023-12-04T02:08:37;101215.93;;;-3.04;65.44
61436;BME280;47304;47.456;19.160;2023-12-04T02:11:08;101218.39;;;-3.09;65.33
61436;BME280;47304;47.456;19.160;2023-12-04T02:13:37;101218.70;;;-3.14;65.49
61436;BME280;47304;47.456;19.160;2023-12-04T02:16:08;101217.53;;;-3.19;65.66
61436;BME280;47304;47.456;19.160;2023-12-04T02:18:37;101221.02;;;-3.20;65.81
61436;BME280;47304;47.456;19.160;2023-12-04T02:21:07;101220.52;;;-3.22;65.88
61436;BME280;47304;47.456;19.160;2023-12-04T02:23:36;101217.85;;;-3.24;65.94
61436;BME280;47304;47.456;19.160;2023-12-04T02:26:08;101218.19;;;-3.24;66.12
61436;BME280;47304;47.456;19.160;2023-12-04T02:28:38;101221.94;;;-3.22;66.13
61436;BME280;47304;47.456;19.160;2023-12-04T02:31:09;101221.42;;;-3.19;66.12
61436;BME280;47304;47.456;19.160;2023-12-04T02:33:39;101225.39;;;-3.16;66.13
61436;BME280;47304;47.456;19.160;2023-12-04T02:36:11;101221.64;;;-3.16;65.98
61436;BME280;47304;47.456;19.160;2023-12-04T02:38:40;101215.26;;;-3.14;66.18
61436;BME280;47304;47.456;19.160;2023-12-04T02:41:09;101215.34;;;-3.13;65.95
61436;BME280;47304;47.456;19.160;2023-12-04T02:43:37;101215.95;;;-3.12;65.98
61436;BME280;47304;47.456;19.160;2023-12-04T02:46:08;101219.69;;;-3.12;65.87
61436;BME280;47304;47.456;19.160;2023-12-04T02:48:37;101220.11;;;-3.14;65.87
61436;BME280;47304;47.456;19.160;2023-12-04T02:51:07;101217.22;;;-3.18;65.59
61436;BME280;47304;47.456;19.160;2023-12-04T02:53:35;101217.20;;;-3.24;65.97
61436;BME280;47304;47.456;19.160;2023-12-04T02:56:05;101216.23;;;-3.28;65.96
61436;BME280;47304;47.456;19.160;2023-12-04T02:58:33;101223.05;;;-3.33;65.99
61436;BME280;47304;47.456;19.160;2023-12-04T03:01:02;101221.91;;;-3.37;66.12
61436;BME280;47304;47.456;19.160;2023-12-04T03:03:31;101218.92;;;-3.38;66.20
61436;BME280;47304;47.456;19.160;2023-12-04T03:05:59;101224.38;;;-3.36;66.28
61436;BME280;47304;47.456;19.160;2023-12-04T03:08:28;101230.73;;;-3.33;66.48
61436;BME280;47304;47.456;19.160;2023-12-04T03:10:57;101233.31;;;-3.31;66.59
61436;BME280;47304;47.456;19.160;2023-12-04T03:13:25;101232.67;;;-3.31;66.31
61436;BME280;47304;47.456;19.160;2023-12-04T03:15:54;101234.61;;;-3.30;66.23
61436;BME280;47304;47.456;19.160;2023-12-04T03:18:22;101234.75;;;-3.30;66.11
61436;BME280;47304;47.456;19.160;2023-12-04T03:20:51;101232.64;;;-3.31;66.12
61436;BME280;47304;47.456;19.160;2023-12-04T03:23:20;101228.85;;;-3.33;66.03
61436;BME280;47304;47.456;19.160;2023-12-04T03:25:48;101230.57;;;-3.36;66.21
61436;BME280;47304;47.456;19.160;2023-12-04T03:28:17;101227.62;;;-3.37;66.44
61436;BME280;47304;47.456;19.160;2023-12-04T03:30:46;101230.20;;;-3.36;66.42
61436;BME280;47304;47.456;19.160;2023-12-04T03:33:15;101231.25;;;-3.36;66.61
61436;BME280;47304;47.456;19.160;2023-12-04T03:35:44;101235.39;;;-3.36;66.52
61436;BME280;47304;47.456;19.160;2023-12-04T03:38:12;101241.49;;;-3.34;66.77
61436;BME280;47304;47.456;19.160;2023-12-04T03:40:41;101246.65;;;-3.34;66.73
61436;BME280;47304;47.456;19.160;2023-12-04T03:43:10;101243.66;;;-3.33;66.84
61436;BME280;47304;47.456;19.160;2023-12-04T03:45:38;101247.71;;;-3.31;66.82
61436;BME280;47304;47.456;19.160;2023-12-04T03:48:07;101245.77;;;-3.32;66.55
61436;BME280;47304;47.456;19.160;2023-12-04T03:50:36;101243.50;;;-3.33;66.72
61436;BME280;47304;47.456;19.160;2023-12-04T03:53:05;101247.70;;;-3.31;66.79
61436;BME280;47304;47.456;19.160;2023-12-04T03:55:33;101255.52;;;-3.32;66.45
61436;BME280;47304;47.456;19.160;2023-12-04T03:58:03;101258.45;;;-3.34;66.34
61436;BME280;47304;47.456;19.160;2023-12-04T04:00:32;101253.12;;;-3.37;66.20
61436;BME280;47304;47.456;19.160;2023-12-04T04:03:01;101251.95;;;-3.42;66.01
61436;BME280;47304;47.456;19.160;2023-12-04T04:05:29;101249.83;;;-3.45;66.05
61436;BME280;47304;47.456;19.160;2023-12-04T04:07:58;101238.42;;;-3.49;66.13
61436;BME280;47304;47.456;19.160;2023-12-04T04:10:26;101234.11;;;-3.52;66.03
61436;BME280;47304;47.456;19.160;2023-12-04T04:12:55;101230.45;;;-3.55;66.08
61436;BME280;47304;47.456;19.160;2023-12-04T04:15:23;101225.98;;;-3.58;66.08
61436;BME280;47304;47.456;19.160;2023-12-04T04:17:52;101230.56;;;-3.61;66.11
61436;BME280;47304;47.456;19.160;2023-12-04T04:20:21;101232.36;;;-3.65;66.23
61436;BME280;47304;47.456;19.160;2023-12-04T04:22:50;101235.16;;;-3.69;66.12
61436;BME280;47304;47.456;19.160;2023-12-04T04:25:18;101235.08;;;-3.72;66.48
61436;BME280;47304;47.456;19.160;2023-12-04T04:27:47;101226.91;;;-3.76;66.57
61436;BME280;47304;47.456;19.160;2023-12-04T04:30:16;101230.16;;;-3.79;66.81
61436;BME280;47304;47.456;19.160;2023-12-04T04:32:45;101223.98;;;-3.81;66.74
61436;BME280;47304;47.456;19.160;2023-12-04T04:35:14;101224.33;;;-3.83;66.47
61436;BME280;47304;47.456;19.160;2023-12-04T04:37:42;101226.95;;;-3.85;66.44
61436;BME280;47304;47.456;19.160;2023-12-04T04:40:12;101227.96;;;-3.88;66.44
61436;BME280;47304;47.456;19.160;2023-12-04T04:42:40;101233.09;;;-3.90;66.58
61436;BME280;47304;47.456;19.160;2023-12-04T04:45:10;101238.95;;;-3.93;66.53
61436;BME280;47304;47.456;19.160;2023-12-04T04:47:38;101230.29;;;-3.94;66.78
61436;BME280;47304;47.456;19.160;2023-12-04T04:50:08;101234.55;;;-3.94;67.07
61436;BME280;47304;47.456;19.160;2023-12-04T04:52:36;101236.34;;;-3.93;67.36
61436;BME280;47304;47.456;19.160;2023-12-04T04:55:08;101235.98;;;-3.91;67.48
61436;BME280;47304;47.456;19.160;2023-12-04T04:57:36;101232.73;;;-3.91;67.41
61436;BME280;47304;47.456;19.160;2023-12-04T05:00:07;101234.30;;;-3.93;67.17
61436;BME280;47304;47.456;19.160;2023-12-04T05:02:35;101235.23;;;-3.94;67.03
61436;BME280;47304;47.456;19.160;2023-12-04T05:05:06;101241.39;;;-3.94;67.04
61436;BME280;47304;47.456;19.160;2023-12-04T05:07:34;101242.52;;;-3.95;66.98
61436;BME280;47304;47.456;19.160;2023-12-04T05:10:03;101244.98;;;-3.97;66.92
61436;BME280;47304;47.456;19.160;2023-12-04T05:12:32;101245.98;;;-3.97;67.13
61436;BME280;47304;47.456;19.160;2023-12-04T05:15:00;101251.71;;;-3.96;67.37
61436;BME280;47304;47.456;19.160;2023-12-04T05:17:29;101247.63;;;-3.98;67.05
61436;BME280;47304;47.456;19.160;2023-12-04T05:19:57;101243.67;;;-4.01;67.08
61436;BME280;47304;47.456;19.160;2023-12-04T05:22:26;101243.88;;;-4.00;66.94
61436;BME280;47304;47.456;19.160;2023-12-04T05:24:55;101245.38;;;-4.01;66.68
61436;BME280;47304;47.456;19.160;2023-12-04T05:27:23;101249.98;;;-4.01;66.61
61436;BME280;47304;47.456;19.160;2023-12-04T05:29:52;101254.58;;;-4.04;66.59
61436;BME280;47304;47.456;19.160;2023-12-04T05:32:20;101253.52;;;-4.07;66.55
61436;BME280;47304;47.456;19.160;2023-12-04T05:34:49;101257.88;;;-4.08;66.70
61436;BME280;47304;47.456;19.160;2023-12-04T05:37:17;101260.88;;;-4.09;66.91
61436;BME280;47304;47.456;19.160;2023-12-04T05:39:46;101257.64;;;-4.09;66.83
61436;BME280;47304;47.456;19.160;2023-12-04T05:42:14;101253.68;;;-4.12;66.56
61436;BME280;47304;47.456;19.160;2023-12-04T05:44:43;101250.45;;;-4.18;66.39
61436;BME280;47304;47.456;19.160;2023-12-04T05:47:11;101248.58;;;-4.25;66.42
61436;BME280;47304;47.456;19.160;2023-12-04T05:49:40;101248.44;;;-4.32;66.65
61436;BME280;47304;47.456;19.160;2023-12-04T05:52:08;101256.41;;;-4.35;66.87
61436;BME280;47304;47.456;19.160;2023-12-04T05:54:37;101262.03;;;-4.35;67.01
61436;BME280;47304;47.456;19.160;2023-12-04T05:57:06;101262.10;;;-4.35;67.06
61436;BME280;47304;47.456;19.160;2023-12-04T05:59:34;101262.57;;;-4.35;67.04
61436;BME280;47304;47.456;19.160;2023-12-04T06:02:03;101266.25;;;-4.34;67.07
61436;BME280;47304;47.456;19.160;2023-12-04T06:04:31;101267.02;;;-4.33;67.17
61436;BME280;47304;47.456;19.160;2023-12-04T06:07:00;101267.16;;;-4.28;67.69
61436;BME280;47304;47.456;19.160;2023-12-04T06:09:28;101264.77;;;-4.24;67.42
61436;BME280;47304;47.456;19.160;2023-12-04T06:11:57;101261.27;;;-4.23;67.25
61436;BME280;47304;47.456;19.160;2023-12-04T06:14:26;101265.84;;;-4.21;67.05
61436;BME280;47304;47.456;19.160;2023-12-04T06:16:54;101268.34;;;-4.22;67.04
61436;BME280;47304;47.456;19.160;2023-12-04T06:19:23;101265.44;;;-4.22;67.17
61436;BME280;47304;47.456;19.160;2023-12-04T06:21:52;101267.35;;;-4.21;67.16
61436;BME280;47304;47.456;19.160;2023-12-04T06:24:21;101266.12;;;-4.19;67.19
61436;BME280;47304;47.456;19.160;2023-12-04T06:26:51;101264.80;;;-4.16;67.19
61436;BME280;47304;47.456;19.160;2023-12-04T06:29:21;101264.27;;;-4.14;67.00
61436;BME280;47304;47.456;19.160;2023-12-04T06:31:51;101266.85;;;-4.16;66.80
61436;BME280;47304;47.456;19.160;2023-12-04T06:34:20;101262.85;;;-4.17;66.76
61436;BME280;47304;47.456;19.160;2023-12-04T06:36:50;101268.56;;;-4.18;66.63
61436;BME280;47304;47.456;19.160;2023-12-04T06:39:19;101275.45;;;-4.20;66.92
61436;BME280;47304;47.456;19.160;2023-12-04T06:41:49;101285.05;;;-4.18;67.58
61436;BME280;47304;47.456;19.160;2023-12-04T06:44:19;101286.19;;;-4.11;67.94
61436;BME280;47304;47.456;19.160;2023-12-04T06:46:50;101282.05;;;-4.05;67.79
61436;BME280;47304;47.456;19.160;2023-12-04T06:49:20;101285.71;;;-3.99;67.52
61436;BME280;47304;47.456;19.160;2023-12-04T06:51:49;101287.79;;;-3.97;67.59
61436;BME280;47304;47.456;19.160;2023-12-04T06:54:17;101292.17;;;-3.95;67.77
61436;BME280;47304;47.456;19.160;2023-12-04T06:56:46;101285.56;;;-3.92;67.76
61436;BME280;47304;47.456;19.160;2023-12-04T06:59:14;101285.48;;;-3.88;67.67
61436;BME280;47304;47.456;19.160;2023-12-04T07:01:43;101284.60;;;-3.86;67.73
61436;BME280;47304;47.456;19.160;2023-12-04T07:04:11;101286.52;;;-3.85;67.72
61436;BME280;47304;47.456;19.160;2023-12-04T07:06:40;101286.05;;;-3.88;67.74
61436;BME280;47304;47.456;19.160;2023-12-04T07:09:08;101291.55;;;-3.89;67.84
61436;BME280;47304;47.456;19.160;2023-12-04T07:11:37;101291.75;;;-3.92;67.89
61436;BME280;47304;47.456;19.160;2023-12-04T07:14:05;101296.25;;;-3.88;68.16
61436;BME280;47304;47.456;19.160;2023-12-04T07:16:40;101295.45;;;-3.87;67.91
61436;BME280;47304;47.456;19.160;2023-12-04T07:19:09;101294.65;;;-3.92;68.16
61436;BME280;47304;47.456;19.160;2023-12-04T07:21:37;101297.36;;;-3.87;68.45
61436;BME280;47304;47.456;19.160;2023-12-04T07:24:06;101303.85;;;-3.83;68.45
61436;BME280;47304;47.456;19.160;2023-12-04T07:26:35;101297.23;;;-3.82;68.30
61436;BME280;47304;47.456;19.160;2023-12-04T07:29:04;101297.25;;;-3.79;68.29
61436;BME280;47304;47.456;19.160;2023-12-04T07:31:32;101296.48;;;-3.78;68.36
61436;BME280;47304;47.456;19.160;2023-12-04T07:34:01;101296.80;;;-3.78;68.28
61436;BME280;47304;47.456;19.160;2023-12-04T07:36:30;101295.30;;;-3.78;68.41
61436;BME280;47304;47.456;19.160;2023-12-04T07:38:58;101300.56;;;-3.79;68.61
61436;BME280;47304;47.456;19.160;2023-12-04T07:41:26;101303.20;;;-3.70;68.91
61436;BME280;47304;47.456;19.160;2023-12-04T07:43:55;101304.72;;;-3.61;68.76
61436;BME280;47304;47.456;19.160;2023-12-04T07:46:23;101306.02;;;-3.52;68.96
61436;BME280;47304;47.456;19.160;2023-12-04T07:48:52;101301.89;;;-3.38;69.08
61436;BME280;47304;47.456;19.160;2023-12-04T07:51:20;101304.41;;;-3.26;68.85
61436;BME280;47304;47.456;19.160;2023-12-04T07:53:49;101306.10;;;-3.17;68.64
61436;BME280;47304;47.456;19.160;2023-12-04T07:56:17;101307.33;;;-3.09;68.55
61436;BME280;47304;47.456;19.160;2023-12-04T07:58:46;101307.20;;;-3.03;68.30
61436;BME280;47304;47.456;19.160;2023-12-04T08:01:15;101311.54;;;-2.98;68.09
61436;BME280;47304;47.456;19.160;2023-12-04T08:03:43;101309.74;;;-2.91;67.96
61436;BME280;47304;47.456;19.160;2023-12-04T08:06:12;101315.82;;;-2.85;67.96
61436;BME280;47304;47.456;19.160;2023-12-04T08:08:41;101314.02;;;-2.79;67.84
61436;BME280;47304;47.456;19.160;2023-12-04T08:11:10;101310.13;;;-2.73;67.69
61436;BME280;47304;47.456;19.160;2023-12-04T08:13:40;101306.52;;;-2.68;67.57
61436;BME280;47304;47.456;19.160;2023-12-04T08:16:15;101306.09;;;-2.59;67.61
61436;BME280;47304;47.456;19.160;2023-12-04T08:18:44;101306.36;;;-2.50;67.49
61436;BME280;47304;47.456;19.160;2023-12-04T08:21:12;101308.21;;;-2.40;67.26
61436;BME280;47304;47.456;19.160;2023-12-04T08:23:40;101307.56;;;-2.29;67.02
61436;BME280;47304;47.456;19.160;2023-12-04T08:26:09;101312.98;;;-2.15;66.84
61436;BME280;47304;47.456;19.160;2023-12-04T08:28:38;101311.34;;;-2.03;66.45
61436;BME280;47304;47.456;19.160;2023-12-04T08:31:07;101316.05;;;-1.91;66.19
61436;BME280;47304;47.456;19.160;2023-12-04T08:33:35;101317.20;;;-1.81;65.69
61436;BME280;47304;47.456;19.160;2023-12-04T08:36:05;101319.17;;;-1.64;65.84
61436;BME280;47304;47.456;19.160;2023-12-04T08:38:34;101318.77;;;-1.37;65.92
61436;BME280;47304;47.456;19.160;2023-12-04T08:41:02;101316.50;;;-1.05;65.50
61436;BME280;47304;47.456;19.160;2023-12-04T08:43:32;101304.96;;;-0.71;64.93
61436;BME280;47304;47.456;19.160;2023-12-04T08:46:00;101305.49;;;-0.29;64.57
61436;BME280;47304;47.456;19.160;2023-12-04T08:48:29;101306.52;;;0.16;63.90
61436;BME280;47304;47.456;19.160;2023-12-04T08:50:57;101307.60;;;0.60;63.29
61436;BME280;47304;47.456;19.160;2023-12-04T08:53:26;101305.30;;;1.04;62.49
61436;BME280;47304;47.456;19.160;2023-12-04T08:55:55;101302.35;;;1.44;61.49
61436;BME280;47304;47.456;19.160;2023-12-04T08:58:24;101298.98;;;1.80;60.71
61436;BME280;47304;47.456;19.160;2023-12-04T09:00:52;101293.47;;;2.23;59.98
61436;BME280;47304;47.456;19.160;2023-12-04T09:03:21;101297.92;;;2.70;59.29
61436;BME280;47304;47.456;19.160;2023-12-04T09:05:49;101293.48;;;2.98;58.06
61436;BME280;47304;47.456;19.160;2023-12-04T09:08:17;101293.32;;;3.10;57.23
61436;BME280;47304;47.456;19.160;2023-12-04T09:10:47;101295.64;;;3.15;56.59
61436;BME280;47304;47.456;19.160;2023-12-04T09:13:15;101297.59;;;3.05;56.29
61436;BME280;47304;47.456;19.160;2023-12-04T09:15:44;101298.56;;;2.96;56.32
61436;BME280;47304;47.456;19.160;2023-12-04T09:18:13;101298.99;;;2.82;56.15
61436;BME280;47304;47.456;19.160;2023-12-04T09:20:41;101307.90;;;2.69;56.09
61436;BME280;47304;47.456;19.160;2023-12-04T09:23:10;101307.44;;;2.44;56.39
61436;BME280;47304;47.456;19.160;2023-12-04T09:25:38;101302.63;;;2.19;56.78
61436;BME280;47304;47.456;19.160;2023-12-04T09:28:07;101302.13;;;1.95;56.61
61436;BME280;47304;47.456;19.160;2023-12-04T09:30:37;101299.13;;;1.69;56.56
61436;BME280;47304;47.456;19.160;2023-12-04T09:33:05;101298.08;;;1.55;56.95
61436;BME280;47304;47.456;19.160;2023-12-04T09:35:34;101296.36;;;1.76;57.46
61436;BME280;47304;47.456;19.160;2023-12-04T09:38:02;101289.10;;;2.22;57.49
61436;BME280;47304;47.456;19.160;2023-12-04T09:40:31;101280.98;;;2.86;56.28
61436;BME280;47304;47.456;19.160;2023-12-04T09:43:00;101268.85;;;3.40;55.52
61436;BME280;47304;47.456;19.160;2023-12-04T09:45:30;101266.56;;;4.11;54.84
61436;BME280;47304;47.456;19.160;2023-12-04T09:48:00;101261.02;;;4.89;53.74
61436;BME280;47304;47.456;19.160;2023-12-04T09:50:29;101256.69;;;5.63;51.92
61436;BME280;47304;47.456;19.160;2023-12-04T09:53:01;101247.89;;;6.23;50.38
61436;BME280;47304;47.456;19.160;2023-12-04T09:55:30;101242.80;;;6.74;49.35
61436;BME280;47304;47.456;19.160;2023-12-04T09:57:59;101232.77;;;7.14;48.21
61436;BME280;47304;47.456;19.160;2023-12-04T10:00:28;101233.27;;;7.33;47.03
61436;BME280;47304;47.456;19.160;2023-12-04T10:02:57;101229.54;;;7.30;46.33
61436;BME280;47304;47.456;19.160;2023-12-04T10:05:26;101224.45;;;7.35;45.80
61436;BME280;47304;47.456;19.160;2023-12-04T10:07:54;101225.46;;;7.40;46.13
61436;BME280;47304;47.456;19.160;2023-12-04T10:10:23;101220.52;;;7.45;45.64
61436;BME280;47304;47.456;19.160;2023-12-04T10:12:52;101220.55;;;7.53;45.59
61436;BME280;47304;47.456;19.160;2023-12-04T10:15:20;101216.05;;;7.54;44.97
61436;BME280;47304;47.456;19.160;2023-12-04T10:17:49;101209.54;;;7.51;44.59
61436;BME280;47304;47.456;19.160;2023-12-04T10:20:18;101202.29;;;7.55;44.40
61436;BME280;47304;47.456;19.160;2023-12-04T10:22:57;101200.33;;;7.89;43.83
61436;BME280;47304;47.456;19.160;2023-12-04T10:25:27;101197.11;;;8.01;42.76
61436;BME280;47304;47.456;19.160;2023-12-04T10:27:56;101195.23;;;8.33;43.09
61436;BME280;47304;47.456;19.160;2023-12-04T10:30:35;101190.80;;;9.17;42.26
61436;BME280;47304;47.456;19.160;2023-12-04T10:33:04;101179.46;;;10.29;41.21
61436;BME280;47304;47.456;19.160;2023-12-04T10:35:34;101173.32;;;11.53;40.02
61436;BME280;47304;47.456;19.160;2023-12-04T10:38:03;101166.10;;;12.58;37.60
61436;BME280;47304;47.456;19.160;2023-12-04T10:40:33;101163.12;;;13.38;36.43
61436;BME280;47304;47.456;19.160;2023-12-04T10:43:16;101162.90;;;14.13;35.22
61436;BME280;47304;47.456;19.160;2023-12-04T10:45:46;101158.83;;;15.04;34.64
61436;BME280;47304;47.456;19.160;2023-12-04T10:48:16;101151.58;;;16.10;33.79
61436;BME280;47304;47.456;19.160;2023-12-04T10:50:46;101153.70;;;17.10;32.05
61436;BME280;47304;47.456;19.160;2023-12-04T10:53:16;101149.02;;;17.90;31.04
61436;BME280;47304;47.456;19.160;2023-12-04T10:55:45;101142.30;;;18.78;30.11
61436;BME280;47304;47.456;19.160;2023-12-04T10:58:16;101136.57;;;19.20;28.66
61436;BME280;47304;47.456;19.160;2023-12-04T11:00:47;101136.00;;;19.78;28.09
61436;BME280;47304;47.456;19.160;2023-12-04T11:03:28;101130.80;;;20.69;27.28
61436;BME280;47304;47.456;19.160;2023-12-04T11:06:02;101130.34;;;21.97;26.22
61436;BME280;47304;47.456;19.160;2023-12-04T11:08:32;101123.20;;;22.74;25.21
61436;BME280;47304;47.456;19.160;2023-12-04T11:11:04;101123.65;;;23.08;24.16
61436;BME280;47304;47.456;19.160;2023-12-04T11:13:34;101122.66;;;21.81;23.78
61436;BME280;47304;47.456;19.160;2023-12-04T11:16:09;101123.27;;;19.71;24.45
61436;BME280;47304;47.456;19.160;2023-12-04T11:18:43;101128.23;;;17.62;26.31
61436;BME280;47304;47.456;19.160;2023-12-04T11:21:18;101126.95;;;15.98;27.06
61436;BME280;47304;47.456;19.160;2023-12-04T11:23:48;101124.62;;;15.03;28.13
61436;BME280;47304;47.456;19.160;2023-12-04T11:26:18;101123.09;;;15.94;27.99
61436;BME280;47304;47.456;19.160;2023-12-04T11:28:48;101115.87;;;16.82;26.87
61436;BME280;47304;47.456;19.160;2023-12-04T11:31:17;101114.89;;;17.24;26.50
61436;BME280;47304;47.456;19.160;2023-12-04T11:33:46;101102.27;;;18.66;26.07
61436;BME280;47304;47.456;19.160;2023-12-04T11:36:15;101097.67;;;20.26;24.31
61436;BME280;47304;47.456;19.160;2023-12-04T11:38:47;101094.92;;;21.64;23.71
61436;BME280;47304;47.456;19.160;2023-12-04T11:41:20;101084.66;;;22.87;22.71
61436;BME280;47304;47.456;19.160;2023-12-04T11:43:50;101085.40;;;23.09;22.27
61436;BME280;47304;47.456;19.160;2023-12-04T11:46:22;101082.34;;;23.31;21.57
61436;BME280;47304;47.456;19.160;2023-12-04T11:48:51;101078.48;;;22.99;21.20
61436;BME280;47304;47.456;19.160;2023-12-04T11:54:09;101068.14;;;24.15;20.17
61436;BME280;47304;47.456;19.160;2023-12-04T11:56:37;101068.20;;;24.67;19.94
61436;BME280;47304;47.456;19.160;2023-12-04T11:59:06;101067.24;;;25.01;19.65
61436;BME280;47304;47.456;19.160;2023-12-04T12:01:37;101066.20;;;25.01;19.34
61436;BME280;47304;47.456;19.160;2023-12-04T12:04:07;101068.95;;;24.93;19.32
61436;BME280;47304;47.456;19.160;2023-12-04T12:06:36;101065.02;;;24.58;19.20
61436;BME280;47304;47.456;19.160;2023-12-04T12:09:05;101056.19;;;23.81;19.67
61436;BME280;47304;47.456;19.160;2023-12-04T12:11:35;101051.91;;;22.66;20.09
61436;BME280;47304;47.456;19.160;2023-12-04T12:14:04;101057.11;;;20.82;21.26
61436;BME280;47304;47.456;19.160;2023-12-04T12:16:33;101061.85;;;19.08;22.10
61436;BME280;47304;47.456;19.160;2023-12-04T12:19:03;101061.64;;;17.49;23.13
61436;BME280;47304;47.456;19.160;2023-12-04T12:21:31;101058.85;;;16.35;24.25
61436;BME280;47304;47.456;19.160;2023-12-04T12:24:01;101051.13;;;15.86;24.59
61436;BME280;47304;47.456;19.160;2023-12-04T12:26:30;101046.42;;;15.25;25.22
61436;BME280;47304;47.456;19.160;2023-12-04T12:28:59;101036.27;;;14.39;25.86
61436;BME280;47304;47.456;19.160;2023-12-04T12:31:27;101032.88;;;13.55;26.97
61436;BME280;47304;47.456;19.160;2023-12-04T12:33:56;101033.21;;;12.57;28.33
61436;BME280;47304;47.456;19.160;2023-12-04T12:36:25;101022.58;;;11.51;29.36
61436;BME280;47304;47.456;19.160;2023-12-04T12:38:55;101015.60;;;10.64;30.84
61436;BME280;47304;47.456;19.160;2023-12-04T12:41:23;101015.63;;;10.04;31.85
61436;BME280;47304;47.456;19.160;2023-12-04T12:43:54;101017.51;;;9.35;32.73
61436;BME280;47304;47.456;19.160;2023-12-04T12:46:23;101015.70;;;8.67;33.74
61436;BME280;47304;47.456;19.160;2023-12-04T12:48:52;101018.08;;;8.09;34.75
61436;BME280;47304;47.456;19.160;2023-12-04T12:51:21;101018.92;;;7.58;35.60
61436;BME280;47304;47.456;19.160;2023-12-04T12:53:51;101015.84;;;7.14;36.32